sensor_id;sensor_type;location;lat;lon;timestamp;temperature;humidity
17399;DHT22;8817;48.170;8.592;2023-06-26T00:00:08;26.70;33.80
17399;DHT22;8817;48.170;8.592;2023-06-26T00:02:36;26.70;33.90
17399;DHT22;8817;48.170;8.592;2023-06-26T00:05:04;26.70;33.90
17399;DHT22;8817;48.170;8.592;2023-06-26T00:07:31;26.60;33.90
17399;DHT22;8817;48.170;8.592;2023-06-26T00:10:02;26.60;33.90
17399;DHT22;8817;48.170;8.592;2023-06-26T00:12:29;26.50;34.00
17399;DHT22;8817;48.170;8.592;2023-06-26T00:14:57;26.50;34.00
17399;DHT22;8817;48.170;8.592;2023-06-26T00:17:24;26.40;34.00
17399;DHT22;8817;48.170;8.592;2023-06-26T00:19:51;26.40;34.10
17399;DHT22;8817;48.170;8.592;2023-06-26T00:22:18;26.40;34.20
17399;DHT22;8817;48.170;8.592;2023-06-26T00:24:45;26.40;34.20
17399;DHT22;8817;48.170;8.592;2023-06-26T00:27:13;26.40;34.30
17399;DHT22;8817;48.170;8.592;2023-06-26T00:29:40;26.30;34.30
17399;DHT22;8817;48.170;8.592;2023-06-26T00:32:07;26.30;34.40
17399;DHT22;8817;48.170;8.592;2023-06-26T00:34:34;26.30;34.50
17399;DHT22;8817;48.170;8.592;2023-06-26T00:37:01;26.30;34.50
17399;DHT22;8817;48.170;8.592;2023-06-26T00:39:28;26.20;34.50
17399;DHT22;8817;48.170;8.592;2023-06-26T00:41:55;26.20;34.60
17399;DHT22;8817;48.170;8.592;2023-06-26T00:44:23;26.20;34.60
17399;DHT22;8817;48.170;8.592;2023-06-26T00:46:50;26.20;34.60
17399;DHT22;8817;48.170;8.592;2023-06-26T00:49:17;26.20;34.60
17399;DHT22;8817;48.170;8.592;2023-06-26T00:51:44;26.20;34.60
17399;DHT22;8817;48.170;8.592;2023-06-26T00:54:11;26.20;34.60
17399;DHT22;8817;48.170;8.592;2023-06-26T00:56:41;26.10;34.60
17399;DHT22;8817;48.170;8.592;2023-06-26T00:59:08;26.10;34.70
17399;DHT22;8817;48.170;8.592;2023-06-26T01:01:36;26.10;34.80
17399;DHT22;8817;48.170;8.592;2023-06-26T01:04:03;26.00;34.80
17399;DHT22;8817;48.170;8.592;2023-06-26T01:06:32;26.00;34.80
17399;DHT22;8817;48.170;8.592;2023-06-26T01:09:01;25.90;34.80
17399;DHT22;8817;48.170;8.592;2023-06-26T01:11:28;26.00;34.90
17399;DHT22;8817;48.170;8.592;2023-06-26T01:13:56;25.90;34.90
17399;DHT22;8817;48.170;8.592;2023-06-26T01:16:25;25.90;35.00
17399;DHT22;8817;48.170;8.592;2023-06-26T01:18:54;25.80;35.00
17399;DHT22;8817;48.170;8.592;2023-06-26T01:21:23;25.80;35.00
17399;DHT22;8817;48.170;8.592;2023-06-26T01:24:02;25.80;35.10
17399;DHT22;8817;48.170;8.592;2023-06-26T01:26:34;25.80;35.20
17399;DHT22;8817;48.170;8.592;2023-06-26T01:29:03;25.80;35.20
17399;DHT22;8817;48.170;8.592;2023-06-26T01:31:31;25.80;35.20
17399;DHT22;8817;48.170;8.592;2023-06-26T01:33:58;25.70;35.10
17399;DHT22;8817;48.170;8.592;2023-06-26T01:36:26;25.70;35.20
17399;DHT22;8817;48.170;8.592;2023-06-26T01:38:53;25.70;35.20
17399;DHT22;8817;48.170;8.592;2023-06-26T01:41:20;25.60;35.20
17399;DHT22;8817;48.170;8.592;2023-06-26T01:44:01;25.60;35.30
17399;DHT22;8817;48.170;8.592;2023-06-26T01:46:38;25.50;35.30
17399;DHT22;8817;48.170;8.592;2023-06-26T01:49:12;25.50;35.30
17399;DHT22;8817;48.170;8.592;2023-06-26T01:51:42;25.50;35.30
17399;DHT22;8817;48.170;8.592;2023-06-26T01:54:17;25.50;35.40
17399;DHT22;8817;48.170;8.592;2023-06-26T01:56:46;25.40;35.40
17399;DHT22;8817;48.170;8.592;2023-06-26T01:59:18;25.40;35.40
17399;DHT22;8817;48.170;8.592;2023-06-26T02:01:46;25.40;35.50
17399;DHT22;8817;48.170;8.592;2023-06-26T02:04:13;25.40;35.60
17399;DHT22;8817;48.170;8.592;2023-06-26T02:06:43;25.40;35.60
17399;DHT22;8817;48.170;8.592;2023-06-26T02:09:10;25.40;35.70
17399;DHT22;8817;48.170;8.592;2023-06-26T02:11:37;25.40;35.70
17399;DHT22;8817;48.170;8.592;2023-06-26T02:14:04;25.40;35.70
17399;DHT22;8817;48.170;8.592;2023-06-26T02:16:32;25.40;35.70
17399;DHT22;8817;48.170;8.592;2023-06-26T02:18:59;25.40;35.80
17399;DHT22;8817;48.170;8.592;2023-06-26T02:21:25;25.40;35.80
17399;DHT22;8817;48.170;8.592;2023-06-26T02:23:53;25.30;35.70
17399;DHT22;8817;48.170;8.592;2023-06-26T02:26:19;25.30;35.70
17399;DHT22;8817;48.170;8.592;2023-06-26T02:28:46;25.30;35.80
17399;DHT22;8817;48.170;8.592;2023-06-26T02:31:13;25.30;35.80
17399;DHT22;8817;48.170;8.592;2023-06-26T02:33:42;25.30;35.80
17399;DHT22;8817;48.170;8.592;2023-06-26T02:36:11;25.30;35.90
17399;DHT22;8817;48.170;8.592;2023-06-26T02:38:37;25.30;35.90
17399;DHT22;8817;48.170;8.592;2023-06-26T02:41:04;25.20;35.80
17399;DHT22;8817;48.170;8.592;2023-06-26T02:43:31;25.20;36.50
17399;DHT22;8817;48.170;8.592;2023-06-26T02:45:58;25.20;35.90
17399;DHT22;8817;48.170;8.592;2023-06-26T02:48:25;25.20;35.90
17399;DHT22;8817;48.170;8.592;2023-06-26T02:50:53;25.20;36.00
17399;DHT22;8817;48.170;8.592;2023-06-26T02:53:20;25.10;36.00
17399;DHT22;8817;48.170;8.592;2023-06-26T02:55:47;25.10;35.90
17399;DHT22;8817;48.170;8.592;2023-06-26T02:58:14;25.10;36.00
17399;DHT22;8817;48.170;8.592;2023-06-26T03:00:41;25.10;36.00
17399;DHT22;8817;48.170;8.592;2023-06-26T03:03:08;25.10;36.00
17399;DHT22;8817;48.170;8.592;2023-06-26T03:05:35;25.00;36.00
17399;DHT22;8817;48.170;8.592;2023-06-26T03:08:05;25.00;36.00
17399;DHT22;8817;48.170;8.592;2023-06-26T03:10:32;25.00;36.10
17399;DHT22;8817;48.170;8.592;2023-06-26T03:12:59;25.00;36.10
17399;DHT22;8817;48.170;8.592;2023-06-26T03:15:26;24.90;36.10
17399;DHT22;8817;48.170;8.592;2023-06-26T03:17:53;24.90;36.70
17399;DHT22;8817;48.170;8.592;2023-06-26T03:20:20;24.90;36.20
17399;DHT22;8817;48.170;8.592;2023-06-26T03:22:47;24.80;36.20
17399;DHT22;8817;48.170;8.592;2023-06-26T03:25:15;24.80;36.20
17399;DHT22;8817;48.170;8.592;2023-06-26T03:27:42;24.70;36.30
17399;DHT22;8817;48.170;8.592;2023-06-26T03:30:11;24.80;36.40
17399;DHT22;8817;48.170;8.592;2023-06-26T03:32:38;24.70;36.40
17399;DHT22;8817;48.170;8.592;2023-06-26T03:35:05;24.70;36.40
17399;DHT22;8817;48.170;8.592;2023-06-26T03:37:32;24.70;36.40
17399;DHT22;8817;48.170;8.592;2023-06-26T03:39:59;24.70;36.50
17399;DHT22;8817;48.170;8.592;2023-06-26T03:42:27;24.60;36.50
17399;DHT22;8817;48.170;8.592;2023-06-26T03:44:54;24.60;36.60
17399;DHT22;8817;48.170;8.592;2023-06-26T03:47:21;24.60;36.60
17399;DHT22;8817;48.170;8.592;2023-06-26T03:49:48;24.60;36.70
17399;DHT22;8817;48.170;8.592;2023-06-26T03:52:15;24.60;36.70
17399;DHT22;8817;48.170;8.592;2023-06-26T03:54:42;24.50;36.70
17399;DHT22;8817;48.170;8.592;2023-06-26T03:57:09;24.50;36.70
17399;DHT22;8817;48.170;8.592;2023-06-26T03:59:37;24.50;36.80
17399;DHT22;8817;48.170;8.592;2023-06-26T04:02:04;24.50;36.80
17399;DHT22;8817;48.170;8.592;2023-06-26T04:04:31;24.50;36.80
17399;DHT22;8817;48.170;8.592;2023-06-26T04:06:58;24.40;36.80
17399;DHT22;8817;48.170;8.592;2023-06-26T04:09:25;24.40;36.90
17399;DHT22;8817;48.170;8.592;2023-06-26T04:11:52;24.40;36.90
17399;DHT22;8817;48.170;8.592;2023-06-26T04:14:19;24.40;37.00
17399;DHT22;8817;48.170;8.592;2023-06-26T04:16:47;24.40;37.00
17399;DHT22;8817;48.170;8.592;2023-06-26T04:19:14;24.40;37.00
17399;DHT22;8817;48.170;8.592;2023-06-26T04:21:41;24.40;37.10
17399;DHT22;8817;48.170;8.592;2023-06-26T04:24:08;24.30;37.00
17399;DHT22;8817;48.170;8.592;2023-06-26T04:26:35;24.40;37.10
17399;DHT22;8817;48.170;8.592;2023-06-26T04:29:02;24.30;37.10
17399;DHT22;8817;48.170;8.592;2023-06-26T04:31:30;24.30;37.10
17399;DHT22;8817;48.170;8.592;2023-06-26T04:33:58;24.30;37.20
17399;DHT22;8817;48.170;8.592;2023-06-26T04:36:25;24.20;37.90
17399;DHT22;8817;48.170;8.592;2023-06-26T04:38:54;24.30;38.00
17399;DHT22;8817;48.170;8.592;2023-06-26T04:41:21;24.30;37.50
17399;DHT22;8817;48.170;8.592;2023-06-26T04:43:48;24.30;37.50
17399;DHT22;8817;48.170;8.592;2023-06-26T04:46:15;24.30;37.60
17399;DHT22;8817;48.170;8.592;2023-06-26T04:48:41;24.30;37.60
17399;DHT22;8817;48.170;8.592;2023-06-26T04:51:11;24.40;37.70
17399;DHT22;8817;48.170;8.592;2023-06-26T04:53:38;24.40;37.80
17399;DHT22;8817;48.170;8.592;2023-06-26T04:56:05;24.40;37.80
17399;DHT22;8817;48.170;8.592;2023-06-26T04:58:32;24.40;37.80
17399;DHT22;8817;48.170;8.592;2023-06-26T05:00:59;24.40;37.90
17399;DHT22;8817;48.170;8.592;2023-06-26T05:03:26;24.50;38.00
17399;DHT22;8817;48.170;8.592;2023-06-26T05:05:53;24.50;38.10
17399;DHT22;8817;48.170;8.592;2023-06-26T05:08:24;24.60;38.20
17399;DHT22;8817;48.170;8.592;2023-06-26T05:10:52;24.70;38.30
17399;DHT22;8817;48.170;8.592;2023-06-26T05:13:23;24.70;38.30
17399;DHT22;8817;48.170;8.592;2023-06-26T05:15:51;24.80;38.40
17399;DHT22;8817;48.170;8.592;2023-06-26T05:18:18;24.90;38.50
17399;DHT22;8817;48.170;8.592;2023-06-26T05:20:46;25.00;38.50
17399;DHT22;8817;48.170;8.592;2023-06-26T05:23:13;25.00;38.50
17399;DHT22;8817;48.170;8.592;2023-06-26T05:25:42;25.10;38.60
17399;DHT22;8817;48.170;8.592;2023-06-26T05:28:09;25.20;38.80
17399;DHT22;8817;48.170;8.592;2023-06-26T05:30:38;25.30;38.90
17399;DHT22;8817;48.170;8.592;2023-06-26T05:33:05;25.40;39.00
17399;DHT22;8817;48.170;8.592;2023-06-26T05:35:34;25.40;39.00
17399;DHT22;8817;48.170;8.592;2023-06-26T05:38:03;25.60;39.10
17399;DHT22;8817;48.170;8.592;2023-06-26T05:40:30;25.70;39.10
17399;DHT22;8817;48.170;8.592;2023-06-26T05:42:59;25.80;39.20
17399;DHT22;8817;48.170;8.592;2023-06-26T05:45:26;25.80;39.20
17399;DHT22;8817;48.170;8.592;2023-06-26T05:47:52;25.90;39.20
17399;DHT22;8817;48.170;8.592;2023-06-26T05:50:20;26.00;39.20
17399;DHT22;8817;48.170;8.592;2023-06-26T05:52:47;26.10;39.30
17399;DHT22;8817;48.170;8.592;2023-06-26T05:55:15;26.20;39.40
17399;DHT22;8817;48.170;8.592;2023-06-26T05:57:42;26.40;39.60
17399;DHT22;8817;48.170;8.592;2023-06-26T06:00:12;26.50;39.60
17399;DHT22;8817;48.170;8.592;2023-06-26T06:02:40;26.60;39.70
17399;DHT22;8817;48.170;8.592;2023-06-26T06:05:07;26.70;39.70
17399;DHT22;8817;48.170;8.592;2023-06-26T06:07:35;26.80;39.80
17399;DHT22;8817;48.170;8.592;2023-06-26T06:10:03;26.90;39.80
17399;DHT22;8817;48.170;8.592;2023-06-26T06:12:30;27.00;39.80
17399;DHT22;8817;48.170;8.592;2023-06-26T06:14:57;27.20;40.00
17399;DHT22;8817;48.170;8.592;2023-06-26T06:17:25;27.30;40.00
17399;DHT22;8817;48.170;8.592;2023-06-26T06:19:52;27.40;40.00
17399;DHT22;8817;48.170;8.592;2023-06-26T06:22:19;27.50;40.50
17399;DHT22;8817;48.170;8.592;2023-06-26T06:24:46;27.50;39.90
17399;DHT22;8817;48.170;8.592;2023-06-26T06:27:13;27.60;39.90
17399;DHT22;8817;48.170;8.592;2023-06-26T06:29:40;27.80;40.00
17399;DHT22;8817;48.170;8.592;2023-06-26T06:32:07;27.80;40.00
17399;DHT22;8817;48.170;8.592;2023-06-26T06:34:35;27.90;40.60
17399;DHT22;8817;48.170;8.592;2023-06-26T06:37:03;27.90;40.00
17399;DHT22;8817;48.170;8.592;2023-06-26T06:39:30;28.00;40.00
17399;DHT22;8817;48.170;8.592;2023-06-26T06:41:56;28.10;40.00
17399;DHT22;8817;48.170;8.592;2023-06-26T06:44:23;28.20;40.10
17399;DHT22;8817;48.170;8.592;2023-06-26T06:46:50;28.20;40.00
17399;DHT22;8817;48.170;8.592;2023-06-26T06:49:17;28.30;40.00
17399;DHT22;8817;48.170;8.592;2023-06-26T06:51:45;28.40;40.10
17399;DHT22;8817;48.170;8.592;2023-06-26T06:54:12;28.50;40.10
17399;DHT22;8817;48.170;8.592;2023-06-26T06:56:39;28.60;40.20
17399;DHT22;8817;48.170;8.592;2023-06-26T06:59:06;28.60;40.20
17399;DHT22;8817;48.170;8.592;2023-06-26T07:01:32;28.70;40.20
17399;DHT22;8817;48.170;8.592;2023-06-26T07:03:59;28.80;40.80
17399;DHT22;8817;48.170;8.592;2023-06-26T07:06:26;28.90;40.30
17399;DHT22;8817;48.170;8.592;2023-06-26T07:08:54;29.00;40.30
17399;DHT22;8817;48.170;8.592;2023-06-26T07:11:21;29.10;40.40
17399;DHT22;8817;48.170;8.592;2023-06-26T07:13:48;29.20;40.40
17399;DHT22;8817;48.170;8.592;2023-06-26T07:16:15;29.30;40.40
17399;DHT22;8817;48.170;8.592;2023-06-26T07:18:42;29.50;40.40
17399;DHT22;8817;48.170;8.592;2023-06-26T07:21:09;29.60;40.30
17399;DHT22;8817;48.170;8.592;2023-06-26T07:23:35;29.70;40.30
17399;DHT22;8817;48.170;8.592;2023-06-26T07:26:04;29.80;40.20
17399;DHT22;8817;48.170;8.592;2023-06-26T07:28:30;29.80;40.10
17399;DHT22;8817;48.170;8.592;2023-06-26T07:30:57;30.00;40.20
17399;DHT22;8817;48.170;8.592;2023-06-26T07:33:24;30.00;40.10
17399;DHT22;8817;48.170;8.592;2023-06-26T07:35:51;30.10;40.10
17399;DHT22;8817;48.170;8.592;2023-06-26T07:38:18;30.20;40.10
17399;DHT22;8817;48.170;8.592;2023-06-26T07:40:45;30.30;40.20
17399;DHT22;8817;48.170;8.592;2023-06-26T07:43:13;30.30;40.10
17399;DHT22;8817;48.170;8.592;2023-06-26T07:45:40;30.40;40.00
17399;DHT22;8817;48.170;8.592;2023-06-26T07:48:06;30.50;40.00
17399;DHT22;8817;48.170;8.592;2023-06-26T07:50:34;30.60;40.00
17399;DHT22;8817;48.170;8.592;2023-06-26T07:53:01;30.60;39.90
17399;DHT22;8817;48.170;8.592;2023-06-26T07:55:28;30.70;40.50
17399;DHT22;8817;48.170;8.592;2023-06-26T07:57:55;30.80;39.90
17399;DHT22;8817;48.170;8.592;2023-06-26T08:00:23;30.90;39.80
17399;DHT22;8817;48.170;8.592;2023-06-26T08:02:50;31.00;39.70
17399;DHT22;8817;48.170;8.592;2023-06-26T08:05:17;31.00;39.50
17399;DHT22;8817;48.170;8.592;2023-06-26T08:07:44;31.10;39.50
17399;DHT22;8817;48.170;8.592;2023-06-26T08:10:11;31.20;39.40
17399;DHT22;8817;48.170;8.592;2023-06-26T08:12:38;31.30;39.40
17399;DHT22;8817;48.170;8.592;2023-06-26T08:15:08;31.30;39.30
17399;DHT22;8817;48.170;8.592;2023-06-26T08:17:37;31.40;39.30
17399;DHT22;8817;48.170;8.592;2023-06-26T08:20:05;31.50;39.30
17399;DHT22;8817;48.170;8.592;2023-06-26T08:22:33;31.50;39.00
17399;DHT22;8817;48.170;8.592;2023-06-26T08:25:00;31.60;38.90
17399;DHT22;8817;48.170;8.592;2023-06-26T08:27:27;31.60;39.10
17399;DHT22;8817;48.170;8.592;2023-06-26T08:29:54;31.70;39.20
17399;DHT22;8817;48.170;8.592;2023-06-26T08:32:20;31.80;39.20
17399;DHT22;8817;48.170;8.592;2023-06-26T08:34:49;31.90;39.10
17399;DHT22;8817;48.170;8.592;2023-06-26T08:37:16;32.00;39.00
17399;DHT22;8817;48.170;8.592;2023-06-26T08:39:43;32.10;38.90
17399;DHT22;8817;48.170;8.592;2023-06-26T08:42:09;32.20;38.90
17399;DHT22;8817;48.170;8.592;2023-06-26T08:44:36;32.20;38.80
17399;DHT22;8817;48.170;8.592;2023-06-26T08:47:04;32.40;38.80
17399;DHT22;8817;48.170;8.592;2023-06-26T08:49:37;32.40;38.70
17399;DHT22;8817;48.170;8.592;2023-06-26T08:52:13;32.50;38.60
17399;DHT22;8817;48.170;8.592;2023-06-26T08:54:46;32.50;38.50
17399;DHT22;8817;48.170;8.592;2023-06-26T08:57:18;32.60;38.40
17399;DHT22;8817;48.170;8.592;2023-06-26T08:59:45;32.70;38.30
17399;DHT22;8817;48.170;8.592;2023-06-26T09:02:13;32.80;38.20
17399;DHT22;8817;48.170;8.592;2023-06-26T09:04:40;32.80;38.10
17399;DHT22;8817;48.170;8.592;2023-06-26T09:07:08;32.90;38.10
17399;DHT22;8817;48.170;8.592;2023-06-26T09:09:35;32.90;37.90
17399;DHT22;8817;48.170;8.592;2023-06-26T09:12:04;33.00;37.80
17399;DHT22;8817;48.170;8.592;2023-06-26T09:14:31;33.00;37.50
17399;DHT22;8817;48.170;8.592;2023-06-26T09:16:58;33.00;37.90
17399;DHT22;8817;48.170;8.592;2023-06-26T09:19:25;33.00;37.30
17399;DHT22;8817;48.170;8.592;2023-06-26T09:21:52;33.00;37.30
17399;DHT22;8817;48.170;8.592;2023-06-26T09:24:22;33.00;37.30
17399;DHT22;8817;48.170;8.592;2023-06-26T09:26:50;33.00;37.30
17399;DHT22;8817;48.170;8.592;2023-06-26T09:29:17;33.00;37.20
17399;DHT22;8817;48.170;8.592;2023-06-26T09:31:44;33.00;37.20
17399;DHT22;8817;48.170;8.592;2023-06-26T09:34:11;33.10;37.20
17399;DHT22;8817;48.170;8.592;2023-06-26T09:36:38;33.10;37.20
17399;DHT22;8817;48.170;8.592;2023-06-26T09:39:08;33.10;37.20
17399;DHT22;8817;48.170;8.592;2023-06-26T09:41:38;33.20;37.10
17399;DHT22;8817;48.170;8.592;2023-06-26T09:44:06;33.20;37.00
17399;DHT22;8817;48.170;8.592;2023-06-26T09:46:34;33.30;37.10
17399;DHT22;8817;48.170;8.592;2023-06-26T09:49:02;33.30;37.00
17399;DHT22;8817;48.170;8.592;2023-06-26T09:51:30;33.40;37.10
17399;DHT22;8817;48.170;8.592;2023-06-26T09:53:58;33.50;37.00
17399;DHT22;8817;48.170;8.592;2023-06-26T09:56:25;33.60;36.80
17399;DHT22;8817;48.170;8.592;2023-06-26T09:58:55;33.60;36.80
17399;DHT22;8817;48.170;8.592;2023-06-26T10:01:23;33.60;36.70
17399;DHT22;8817;48.170;8.592;2023-06-26T10:03:52;33.70;36.80
17399;DHT22;8817;48.170;8.592;2023-06-26T10:06:24;33.70;36.90
17399;DHT22;8817;48.170;8.592;2023-06-26T10:08:53;33.80;36.80
17399;DHT22;8817;48.170;8.592;2023-06-26T10:11:22;33.90;36.80
17399;DHT22;8817;48.170;8.592;2023-06-26T10:13:51;33.90;36.70
17399;DHT22;8817;48.170;8.592;2023-06-26T10:16:23;34.00;36.80
17399;DHT22;8817;48.170;8.592;2023-06-26T10:18:53;34.00;36.60
17399;DHT22;8817;48.170;8.592;2023-06-26T10:21:24;34.10;36.50
17399;DHT22;8817;48.170;8.592;2023-06-26T10:23:53;34.10;36.50
17399;DHT22;8817;48.170;8.592;2023-06-26T10:26:21;34.20;36.40
17399;DHT22;8817;48.170;8.592;2023-06-26T10:28:50;34.20;36.40
17399;DHT22;8817;48.170;8.592;2023-06-26T10:31:22;34.20;36.20
17399;DHT22;8817;48.170;8.592;2023-06-26T10:33:50;34.20;36.10
17399;DHT22;8817;48.170;8.592;2023-06-26T10:36:18;34.20;36.00
17399;DHT22;8817;48.170;8.592;2023-06-26T10:38:49;34.10;36.00
17399;DHT22;8817;48.170;8.592;2023-06-26T10:41:20;34.10;36.00
17399;DHT22;8817;48.170;8.592;2023-06-26T10:43:49;34.10;36.10
17399;DHT22;8817;48.170;8.592;2023-06-26T10:46:19;34.00;35.90
17399;DHT22;8817;48.170;8.592;2023-06-26T10:48:58;33.90;35.70
17399;DHT22;8817;48.170;8.592;2023-06-26T10:51:26;33.80;35.80
17399;DHT22;8817;48.170;8.592;2023-06-26T10:53:57;33.80;36.00
17399;DHT22;8817;48.170;8.592;2023-06-26T10:56:42;33.80;36.20
17399;DHT22;8817;48.170;8.592;2023-06-26T10:59:17;33.70;36.30
17399;DHT22;8817;48.170;8.592;2023-06-26T11:01:46;33.70;36.30
17399;DHT22;8817;48.170;8.592;2023-06-26T11:04:14;33.70;36.30
17399;DHT22;8817;48.170;8.592;2023-06-26T11:06:45;33.70;36.30
17399;DHT22;8817;48.170;8.592;2023-06-26T11:09:17;33.70;36.40
17399;DHT22;8817;48.170;8.592;2023-06-26T11:11:57;33.70;36.40
17399;DHT22;8817;48.170;8.592;2023-06-26T11:14:27;33.70;36.50
17399;DHT22;8817;48.170;8.592;2023-06-26T11:16:56;33.80;36.50
17399;DHT22;8817;48.170;8.592;2023-06-26T11:19:26;33.70;36.50
17399;DHT22;8817;48.170;8.592;2023-06-26T11:21:58;33.80;36.70
17399;DHT22;8817;48.170;8.592;2023-06-26T11:24:26;33.80;36.70
17399;DHT22;8817;48.170;8.592;2023-06-26T11:26:53;33.90;36.80
17399;DHT22;8817;48.170;8.592;2023-06-26T11:29:20;33.90;36.60
17399;DHT22;8817;48.170;8.592;2023-06-26T11:31:59;33.90;36.50
17399;DHT22;8817;48.170;8.592;2023-06-26T11:34:30;33.90;36.60
17399;DHT22;8817;48.170;8.592;2023-06-26T11:36:57;34.00;36.60
17399;DHT22;8817;48.170;8.592;2023-06-26T11:39:26;34.00;36.60
17399;DHT22;8817;48.170;8.592;2023-06-26T11:41:53;34.10;36.50
17399;DHT22;8817;48.170;8.592;2023-06-26T11:44:21;34.10;36.50
17399;DHT22;8817;48.170;8.592;2023-06-26T11:46:51;34.10;36.60
17399;DHT22;8817;48.170;8.592;2023-06-26T11:49:22;34.10;36.50
17399;DHT22;8817;48.170;8.592;2023-06-26T11:51:51;34.20;36.60
17399;DHT22;8817;48.170;8.592;2023-06-26T11:54:24;34.20;36.40
17399;DHT22;8817;48.170;8.592;2023-06-26T11:56:55;34.10;36.40
17399;DHT22;8817;48.170;8.592;2023-06-26T11:59:23;34.10;36.30
17399;DHT22;8817;48.170;8.592;2023-06-26T12:01:51;34.10;36.30
17399;DHT22;8817;48.170;8.592;2023-06-26T12:04:21;34.10;36.40
17399;DHT22;8817;48.170;8.592;2023-06-26T12:06:51;34.10;36.50
17399;DHT22;8817;48.170;8.592;2023-06-26T12:09:23;34.20;37.20
17399;DHT22;8817;48.170;8.592;2023-06-26T12:11:53;34.30;36.60
17399;DHT22;8817;48.170;8.592;2023-06-26T12:14:21;34.30;36.60
17399;DHT22;8817;48.170;8.592;2023-06-26T12:16:48;34.30;36.50
17399;DHT22;8817;48.170;8.592;2023-06-26T12:19:15;34.40;36.50
17399;DHT22;8817;48.170;8.592;2023-06-26T12:21:48;34.40;36.50
17399;DHT22;8817;48.170;8.592;2023-06-26T12:24:20;34.40;36.50
17399;DHT22;8817;48.170;8.592;2023-06-26T12:26:50;34.50;36.50
17399;DHT22;8817;48.170;8.592;2023-06-26T12:29:19;34.60;36.60
17399;DHT22;8817;48.170;8.592;2023-06-26T12:31:50;34.50;36.40
17399;DHT22;8817;48.170;8.592;2023-06-26T12:34:19;34.50;36.40
17399;DHT22;8817;48.170;8.592;2023-06-26T12:36:48;34.60;36.40
17399;DHT22;8817;48.170;8.592;2023-06-26T12:39:17;34.60;36.50
17399;DHT22;8817;48.170;8.592;2023-06-26T12:41:45;34.70;36.60
17399;DHT22;8817;48.170;8.592;2023-06-26T12:44:19;34.70;36.50
17399;DHT22;8817;48.170;8.592;2023-06-26T12:46:47;34.70;36.40
17399;DHT22;8817;48.170;8.592;2023-06-26T12:49:14;34.70;36.40
17399;DHT22;8817;48.170;8.592;2023-06-26T12:51:41;34.80;36.40
17399;DHT22;8817;48.170;8.592;2023-06-26T12:54:10;34.80;36.30
17399;DHT22;8817;48.170;8.592;2023-06-26T12:56:37;34.80;36.20
17399;DHT22;8817;48.170;8.592;2023-06-26T12:59:04;34.80;36.20
17399;DHT22;8817;48.170;8.592;2023-06-26T13:01:31;34.70;36.10
17399;DHT22;8817;48.170;8.592;2023-06-26T13:03:58;34.70;36.00
17399;DHT22;8817;48.170;8.592;2023-06-26T13:06:25;34.70;36.10
17399;DHT22;8817;48.170;8.592;2023-06-26T13:08:51;34.70;36.20
17399;DHT22;8817;48.170;8.592;2023-06-26T13:11:20;34.60;36.10
17399;DHT22;8817;48.170;8.592;2023-06-26T13:13:48;34.60;36.10
17399;DHT22;8817;48.170;8.592;2023-06-26T13:16:15;34.60;36.20
17399;DHT22;8817;48.170;8.592;2023-06-26T13:18:42;34.50;36.30
17399;DHT22;8817;48.170;8.592;2023-06-26T13:21:08;34.60;36.30
17399;DHT22;8817;48.170;8.592;2023-06-26T13:23:35;34.60;36.30
17399;DHT22;8817;48.170;8.592;2023-06-26T13:26:02;34.50;36.20
17399;DHT22;8817;48.170;8.592;2023-06-26T13:28:30;34.50;36.20
17399;DHT22;8817;48.170;8.592;2023-06-26T13:30:57;34.40;36.20
17399;DHT22;8817;48.170;8.592;2023-06-26T13:33:24;34.50;36.30
17399;DHT22;8817;48.170;8.592;2023-06-26T13:35:51;34.50;37.00
17399;DHT22;8817;48.170;8.592;2023-06-26T13:38:19;34.50;36.40
17399;DHT22;8817;48.170;8.592;2023-06-26T13:40:50;34.50;36.30
17399;DHT22;8817;48.170;8.592;2023-06-26T13:43:17;34.40;36.40
17399;DHT22;8817;48.170;8.592;2023-06-26T13:45:45;34.50;36.30
17399;DHT22;8817;48.170;8.592;2023-06-26T13:48:12;34.50;36.40
17399;DHT22;8817;48.170;8.592;2023-06-26T13:50:39;34.50;36.50
17399;DHT22;8817;48.170;8.592;2023-06-26T13:53:05;34.50;36.50
17399;DHT22;8817;48.170;8.592;2023-06-26T13:55:33;34.60;36.60
17399;DHT22;8817;48.170;8.592;2023-06-26T13:58:00;34.70;36.60
17399;DHT22;8817;48.170;8.592;2023-06-26T14:00:29;34.70;36.60
17399;DHT22;8817;48.170;8.592;2023-06-26T14:02:57;34.80;36.50
17399;DHT22;8817;48.170;8.592;2023-06-26T14:05:24;34.80;36.40
17399;DHT22;8817;48.170;8.592;2023-06-26T14:07:51;34.80;36.40
17399;DHT22;8817;48.170;8.592;2023-06-26T14:10:19;34.90;36.40
17399;DHT22;8817;48.170;8.592;2023-06-26T14:12:46;34.80;36.30
17399;DHT22;8817;48.170;8.592;2023-06-26T14:15:13;34.80;36.20
17399;DHT22;8817;48.170;8.592;2023-06-26T14:17:40;34.80;36.00
17399;DHT22;8817;48.170;8.592;2023-06-26T14:20:10;34.70;36.00
17399;DHT22;8817;48.170;8.592;2023-06-26T14:22:38;34.70;36.20
17399;DHT22;8817;48.170;8.592;2023-06-26T14:25:06;34.70;36.10
17399;DHT22;8817;48.170;8.592;2023-06-26T14:27:33;34.60;36.00
17399;DHT22;8817;48.170;8.592;2023-06-26T14:30:00;34.50;35.90
17399;DHT22;8817;48.170;8.592;2023-06-26T14:32:27;34.40;35.80
17399;DHT22;8817;48.170;8.592;2023-06-26T14:34:53;34.30;35.90
17399;DHT22;8817;48.170;8.592;2023-06-26T14:37:22;34.30;36.00
17399;DHT22;8817;48.170;8.592;2023-06-26T14:39:49;34.20;36.00
17399;DHT22;8817;48.170;8.592;2023-06-26T14:42:16;34.20;36.10
17399;DHT22;8817;48.170;8.592;2023-06-26T14:44:45;34.20;36.00
17399;DHT22;8817;48.170;8.592;2023-06-26T14:47:15;34.10;36.00
17399;DHT22;8817;48.170;8.592;2023-06-26T14:49:42;34.10;35.90
17399;DHT22;8817;48.170;8.592;2023-06-26T14:52:12;34.00;35.90
17399;DHT22;8817;48.170;8.592;2023-06-26T14:54:43;34.00;36.00
17399;DHT22;8817;48.170;8.592;2023-06-26T14:57:10;33.90;36.00
17399;DHT22;8817;48.170;8.592;2023-06-26T14:59:37;33.90;35.90
17399;DHT22;8817;48.170;8.592;2023-06-26T15:02:05;33.90;36.00
17399;DHT22;8817;48.170;8.592;2023-06-26T15:04:32;33.90;35.90
17399;DHT22;8817;48.170;8.592;2023-06-26T15:06:59;33.80;35.90
17399;DHT22;8817;48.170;8.592;2023-06-26T15:09:26;33.70;35.90
17399;DHT22;8817;48.170;8.592;2023-06-26T15:11:54;33.70;35.90
17399;DHT22;8817;48.170;8.592;2023-06-26T15:14:21;33.70;35.90
17399;DHT22;8817;48.170;8.592;2023-06-26T15:16:51;33.60;35.80
17399;DHT22;8817;48.170;8.592;2023-06-26T15:19:17;33.60;35.90
17399;DHT22;8817;48.170;8.592;2023-06-26T15:21:44;33.50;35.80
17399;DHT22;8817;48.170;8.592;2023-06-26T15:24:11;33.50;35.80
17399;DHT22;8817;48.170;8.592;2023-06-26T15:26:38;33.50;35.90
17399;DHT22;8817;48.170;8.592;2023-06-26T15:29:06;33.50;35.80
17399;DHT22;8817;48.170;8.592;2023-06-26T15:31:33;33.40;35.70
17399;DHT22;8817;48.170;8.592;2023-06-26T15:34:00;33.40;35.70
17399;DHT22;8817;48.170;8.592;2023-06-26T15:36:27;33.40;35.70
17399;DHT22;8817;48.170;8.592;2023-06-26T15:38:53;33.30;35.60
17399;DHT22;8817;48.170;8.592;2023-06-26T15:41:20;33.20;35.50
17399;DHT22;8817;48.170;8.592;2023-06-26T15:43:47;33.10;35.50
17399;DHT22;8817;48.170;8.592;2023-06-26T15:46:15;33.00;35.40
17399;DHT22;8817;48.170;8.592;2023-06-26T15:48:42;33.00;35.40